Ann Arbor, Michigan
Current Conditions -  °F | °C
As of 8:06 AM on Friday 24 Oct 2014 (Local Time) from KARB Reporting Station
Moderate Fog Moderate Fog  
Wind Chill: 28°   Ceiling: Unl
Heat Index: 28°   Visibility: 0.25mi
Dew Point: 27°   Wind: 0mph
Humidity: 96%   Direction: NA
Pressure: 30.07"   Gusts: NA
Location:  42.28°N, 83.75°W
Report Text: KARB 241206Z 00000KT 1/4SM FZFG CLR M02/M03 A3007 RMK AO2 T10221028
Loading
Personal Weather Stations






























Interactive Weather Map
Tropical Storm Tracking
New forecast layout! Learn more

10-Day Weather Forecast

Advertisements
Track Severe Weather on mobile